Terminal Aerodrome Forecast
Issued by NWS

Home | Current Version | Previous Version | Text Only | Print | Product List | Glossary On
Versions: 1 2 3 4 5 6 7 8 9 10 11 12 13 14 15 16 17 18 19
000
FTUS44 KBMX 301316 AAA
TAFANB
TAF AMD
KANB 301316Z 3013/3112 06004KT 6SM SHRA BR BKN020 OVC035
     FM301600 07006KT 6SM BR VCSH OVC025
     FM301800 03006KT P6SM -SHRA VCTS SCT035CB OVC050
     FM310300 05005KT P6SM BKN050
     FM310600 06004KT 4SM BR OVC015=

USA.gov is the U.S. government's official web portal to all federal, state and local government web resources and services.